sensor_id;sensor_type;location;lat;lon;timestamp;P1;durP1;ratioP1;P2;durP2;ratioP2
15454;SDS011;21057;51.024;7.540;2024-03-06T00:01:58;50.70;;;45.47;;
15454;SDS011;21057;51.024;7.540;2024-03-06T00:04:27;49.90;;;45.70;;
15454;SDS011;21057;51.024;7.540;2024-03-06T00:06:55;49.60;;;44.83;;
15454;SDS011;21057;51.024;7.540;2024-03-06T00:09:24;47.93;;;43.27;;
15454;SDS011;21057;51.024;7.540;2024-03-06T00:11:52;49.97;;;45.43;;
15454;SDS011;21057;51.024;7.540;2024-03-06T00:14:18;50.23;;;46.07;;
15454;SDS011;21057;51.024;7.540;2024-03-06T00:16:46;49.27;;;44.90;;
15454;SDS011;21057;51.024;7.540;2024-03-06T00:19:15;50.83;;;46.07;;
15454;SDS011;21057;51.024;7.540;2024-03-06T00:21:42;51.40;;;46.37;;
15454;SDS011;21057;51.024;7.540;2024-03-06T00:24:09;51.37;;;46.87;;
15454;SDS011;21057;51.024;7.540;2024-03-06T00:26:40;49.23;;;45.07;;
15454;SDS011;21057;51.024;7.540;2024-03-06T00:29:08;49.23;;;45.30;;
15454;SDS011;21057;51.024;7.540;2024-03-06T00:31:35;50.33;;;46.20;;
15454;SDS011;21057;51.024;7.540;2024-03-06T00:34:02;53.27;;;48.90;;
15454;SDS011;21057;51.024;7.540;2024-03-06T00:36:29;52.47;;;47.97;;
15454;SDS011;21057;51.024;7.540;2024-03-06T00:38:59;51.53;;;47.07;;
15454;SDS011;21057;51.024;7.540;2024-03-06T00:41:29;52.60;;;48.27;;
15454;SDS011;21057;51.024;7.540;2024-03-06T00:43:57;49.33;;;45.63;;
15454;SDS011;21057;51.024;7.540;2024-03-06T00:46:24;50.40;;;45.73;;
15454;SDS011;21057;51.024;7.540;2024-03-06T00:48:51;50.17;;;46.27;;
15454;SDS011;21057;51.024;7.540;2024-03-06T00:51:18;48.47;;;44.60;;
15454;SDS011;21057;51.024;7.540;2024-03-06T00:53:46;47.23;;;43.57;;
15454;SDS011;21057;51.024;7.540;2024-03-06T00:56:13;48.03;;;44.30;;
15454;SDS011;21057;51.024;7.540;2024-03-06T00:58:40;47.93;;;44.23;;
15454;SDS011;21057;51.024;7.540;2024-03-06T01:01:08;47.57;;;43.97;;
15454;SDS011;21057;51.024;7.540;2024-03-06T01:03:35;46.53;;;42.40;;
15454;SDS011;21057;51.024;7.540;2024-03-06T01:06:04;46.37;;;42.87;;
15454;SDS011;21057;51.024;7.540;2024-03-06T01:08:30;46.93;;;42.50;;
15454;SDS011;21057;51.024;7.540;2024-03-06T01:10:57;48.00;;;43.70;;
15454;SDS011;21057;51.024;7.540;2024-03-06T01:13:24;55.73;;;43.47;;
15454;SDS011;21057;51.024;7.540;2024-03-06T01:15:51;47.97;;;43.80;;
15454;SDS011;21057;51.024;7.540;2024-03-06T01:18:19;61.00;;;45.37;;
15454;SDS011;21057;51.024;7.540;2024-03-06T01:20:46;57.53;;;44.37;;
15454;SDS011;21057;51.024;7.540;2024-03-06T01:23:13;63.97;;;45.20;;
15454;SDS011;21057;51.024;7.540;2024-03-06T01:25:40;48.00;;;44.00;;
15454;SDS011;21057;51.024;7.540;2024-03-06T01:28:07;47.53;;;43.33;;
15454;SDS011;21057;51.024;7.540;2024-03-06T01:30:33;54.17;;;44.47;;
15454;SDS011;21057;51.024;7.540;2024-03-06T01:33:00;64.10;;;46.00;;
15454;SDS011;21057;51.024;7.540;2024-03-06T01:35:29;58.17;;;45.03;;
15454;SDS011;21057;51.024;7.540;2024-03-06T01:37:56;50.40;;;45.20;;
15454;SDS011;21057;51.024;7.540;2024-03-06T01:40:23;63.80;;;44.20;;
15454;SDS011;21057;51.024;7.540;2024-03-06T01:42:50;50.97;;;45.93;;
15454;SDS011;21057;51.024;7.540;2024-03-06T01:45:17;49.90;;;45.33;;
15454;SDS011;21057;51.024;7.540;2024-03-06T01:47:45;47.67;;;43.30;;
15454;SDS011;21057;51.024;7.540;2024-03-06T01:50:12;49.13;;;43.93;;
15454;SDS011;21057;51.024;7.540;2024-03-06T01:52:41;61.67;;;44.23;;
15454;SDS011;21057;51.024;7.540;2024-03-06T01:55:09;60.10;;;43.07;;
15454;SDS011;21057;51.024;7.540;2024-03-06T01:57:36;48.60;;;43.73;;
15454;SDS011;21057;51.024;7.540;2024-03-06T02:00:05;51.80;;;44.93;;
15454;SDS011;21057;51.024;7.540;2024-03-06T02:02:38;49.90;;;45.43;;
15454;SDS011;21057;51.024;7.540;2024-03-06T02:05:06;46.67;;;42.83;;
15454;SDS011;21057;51.024;7.540;2024-03-06T02:07:33;50.63;;;43.93;;
15454;SDS011;21057;51.024;7.540;2024-03-06T02:10:03;49.03;;;44.43;;
15454;SDS011;21057;51.024;7.540;2024-03-06T02:12:32;49.80;;;45.00;;
15454;SDS011;21057;51.024;7.540;2024-03-06T02:15:00;50.50;;;44.97;;
15454;SDS011;21057;51.024;7.540;2024-03-06T02:17:28;47.03;;;42.97;;
15454;SDS011;21057;51.024;7.540;2024-03-06T02:19:55;48.63;;;44.07;;
15454;SDS011;21057;51.024;7.540;2024-03-06T02:22:25;49.30;;;44.87;;
15454;SDS011;21057;51.024;7.540;2024-03-06T02:24:52;46.73;;;42.93;;
15454;SDS011;21057;51.024;7.540;2024-03-06T02:27:19;49.60;;;44.83;;
15454;SDS011;21057;51.024;7.540;2024-03-06T02:29:46;49.80;;;45.00;;
15454;SDS011;21057;51.024;7.540;2024-03-06T02:32:12;51.53;;;47.03;;
15454;SDS011;21057;51.024;7.540;2024-03-06T02:34:40;50.60;;;45.07;;
15454;SDS011;21057;51.024;7.540;2024-03-06T02:37:06;73.90;;;46.33;;
15454;SDS011;21057;51.024;7.540;2024-03-06T02:39:35;47.07;;;42.90;;
15454;SDS011;21057;51.024;7.540;2024-03-06T02:42:02;48.17;;;44.30;;
15454;SDS011;21057;51.024;7.540;2024-03-06T02:44:29;49.03;;;45.07;;
15454;SDS011;21057;51.024;7.540;2024-03-06T02:46:56;51.13;;;47.47;;
15454;SDS011;21057;51.024;7.540;2024-03-06T02:49:23;49.60;;;45.23;;
15454;SDS011;21057;51.024;7.540;2024-03-06T02:51:50;51.23;;;47.07;;
15454;SDS011;21057;51.024;7.540;2024-03-06T02:54:20;49.40;;;45.43;;
15454;SDS011;21057;51.024;7.540;2024-03-06T02:56:48;46.47;;;42.83;;
15454;SDS011;21057;51.024;7.540;2024-03-06T02:59:20;47.03;;;43.13;;
15454;SDS011;21057;51.024;7.540;2024-03-06T03:01:47;48.07;;;44.30;;
15454;SDS011;21057;51.024;7.540;2024-03-06T03:04:14;46.90;;;42.93;;
15454;SDS011;21057;51.024;7.540;2024-03-06T03:06:41;47.27;;;43.87;;
15454;SDS011;21057;51.024;7.540;2024-03-06T03:09:10;45.07;;;41.77;;
15454;SDS011;21057;51.024;7.540;2024-03-06T03:11:37;45.43;;;41.93;;
15454;SDS011;21057;51.024;7.540;2024-03-06T03:14:06;47.73;;;43.60;;
15454;SDS011;21057;51.024;7.540;2024-03-06T03:16:33;46.30;;;42.30;;
15454;SDS011;21057;51.024;7.540;2024-03-06T03:19:00;43.73;;;40.57;;
15454;SDS011;21057;51.024;7.540;2024-03-06T03:21:30;46.80;;;43.30;;
15454;SDS011;21057;51.024;7.540;2024-03-06T03:23:59;52.30;;;44.23;;
15454;SDS011;21057;51.024;7.540;2024-03-06T03:26:28;46.33;;;42.10;;
15454;SDS011;21057;51.024;7.540;2024-03-06T03:28:55;46.93;;;43.27;;
15454;SDS011;21057;51.024;7.540;2024-03-06T03:31:23;48.77;;;44.47;;
15454;SDS011;21057;51.024;7.540;2024-03-06T03:33:50;54.00;;;43.23;;
15454;SDS011;21057;51.024;7.540;2024-03-06T03:36:16;110.50;;;46.07;;
15454;SDS011;21057;51.024;7.540;2024-03-06T03:38:43;51.13;;;46.10;;
15454;SDS011;21057;51.024;7.540;2024-03-06T03:41:10;48.57;;;44.60;;
15454;SDS011;21057;51.024;7.540;2024-03-06T03:43:38;50.03;;;44.17;;
15454;SDS011;21057;51.024;7.540;2024-03-06T03:46:09;53.20;;;44.63;;
15454;SDS011;21057;51.024;7.540;2024-03-06T03:48:37;49.77;;;45.33;;
15454;SDS011;21057;51.024;7.540;2024-03-06T03:51:04;48.20;;;43.03;;
15454;SDS011;21057;51.024;7.540;2024-03-06T03:53:32;45.83;;;42.50;;
15454;SDS011;21057;51.024;7.540;2024-03-06T03:55:59;49.73;;;45.80;;
15454;SDS011;21057;51.024;7.540;2024-03-06T03:58:26;47.93;;;43.27;;
15454;SDS011;21057;51.024;7.540;2024-03-06T04:00:53;49.87;;;46.00;;
15454;SDS011;21057;51.024;7.540;2024-03-06T04:03:20;59.17;;;41.80;;
15454;SDS011;21057;51.024;7.540;2024-03-06T04:05:51;45.53;;;42.20;;
15454;SDS011;21057;51.024;7.540;2024-03-06T04:08:18;49.07;;;44.63;;
15454;SDS011;21057;51.024;7.540;2024-03-06T04:10:45;47.57;;;43.43;;
15454;SDS011;21057;51.024;7.540;2024-03-06T04:13:12;49.27;;;44.70;;
15454;SDS011;21057;51.024;7.540;2024-03-06T04:15:39;47.47;;;42.60;;
15454;SDS011;21057;51.024;7.540;2024-03-06T04:18:06;52.83;;;43.03;;
15454;SDS011;21057;51.024;7.540;2024-03-06T04:20:36;50.63;;;46.40;;
15454;SDS011;21057;51.024;7.540;2024-03-06T04:23:04;53.57;;;49.00;;
15454;SDS011;21057;51.024;7.540;2024-03-06T04:25:31;51.90;;;47.60;;
15454;SDS011;21057;51.024;7.540;2024-03-06T04:27:58;50.80;;;46.67;;
15454;SDS011;21057;51.024;7.540;2024-03-06T04:30:26;52.60;;;47.07;;
15454;SDS011;21057;51.024;7.540;2024-03-06T04:32:56;53.67;;;45.80;;
15454;SDS011;21057;51.024;7.540;2024-03-06T04:35:23;52.40;;;47.67;;
15454;SDS011;21057;51.024;7.540;2024-03-06T04:37:50;50.07;;;45.60;;
15454;SDS011;21057;51.024;7.540;2024-03-06T04:40:18;49.40;;;46.00;;
15454;SDS011;21057;51.024;7.540;2024-03-06T04:42:47;50.63;;;46.33;;
15454;SDS011;21057;51.024;7.540;2024-03-06T04:45:15;51.27;;;47.27;;
15454;SDS011;21057;51.024;7.540;2024-03-06T04:47:42;47.70;;;44.10;;
15454;SDS011;21057;51.024;7.540;2024-03-06T04:50:10;49.03;;;45.47;;
15454;SDS011;21057;51.024;7.540;2024-03-06T04:52:39;50.40;;;46.33;;
15454;SDS011;21057;51.024;7.540;2024-03-06T04:55:06;49.33;;;45.60;;
15454;SDS011;21057;51.024;7.540;2024-03-06T04:57:36;49.50;;;45.80;;
15454;SDS011;21057;51.024;7.540;2024-03-06T05:00:09;49.80;;;46.13;;
15454;SDS011;21057;51.024;7.540;2024-03-06T05:02:37;49.20;;;45.27;;
15454;SDS011;21057;51.024;7.540;2024-03-06T05:05:06;48.80;;;45.10;;
15454;SDS011;21057;51.024;7.540;2024-03-06T05:07:33;49.33;;;45.13;;
15454;SDS011;21057;51.024;7.540;2024-03-06T05:10:00;51.73;;;47.87;;
15454;SDS011;21057;51.024;7.540;2024-03-06T05:12:27;54.03;;;49.67;;
15454;SDS011;21057;51.024;7.540;2024-03-06T05:14:56;55.93;;;51.33;;
15454;SDS011;21057;51.024;7.540;2024-03-06T05:17:22;52.23;;;48.53;;
15454;SDS011;21057;51.024;7.540;2024-03-06T05:19:52;49.40;;;46.20;;
15454;SDS011;21057;51.024;7.540;2024-03-06T05:22:19;49.87;;;45.93;;
15454;SDS011;21057;51.024;7.540;2024-03-06T05:24:46;48.80;;;45.40;;
15454;SDS011;21057;51.024;7.540;2024-03-06T05:27:15;50.17;;;46.63;;
15454;SDS011;21057;51.024;7.540;2024-03-06T05:29:43;51.53;;;47.60;;
15454;SDS011;21057;51.024;7.540;2024-03-06T05:32:11;48.53;;;44.60;;
15454;SDS011;21057;51.024;7.540;2024-03-06T05:34:38;48.53;;;45.07;;
15454;SDS011;21057;51.024;7.540;2024-03-06T05:37:05;49.93;;;46.00;;
15454;SDS011;21057;51.024;7.540;2024-03-06T05:39:31;49.37;;;45.30;;
15454;SDS011;21057;51.024;7.540;2024-03-06T05:42:02;73.03;;;48.93;;
15454;SDS011;21057;51.024;7.540;2024-03-06T05:44:31;47.70;;;43.50;;
15454;SDS011;21057;51.024;7.540;2024-03-06T05:46:59;49.43;;;44.47;;
15454;SDS011;21057;51.024;7.540;2024-03-06T05:49:28;58.80;;;48.20;;
15454;SDS011;21057;51.024;7.540;2024-03-06T05:51:55;78.83;;;47.63;;
15454;SDS011;21057;51.024;7.540;2024-03-06T05:54:22;84.33;;;46.23;;
15454;SDS011;21057;51.024;7.540;2024-03-06T05:56:50;60.20;;;47.70;;
15454;SDS011;21057;51.024;7.540;2024-03-06T05:59:18;96.57;;;45.20;;
15454;SDS011;21057;51.024;7.540;2024-03-06T06:01:49;54.40;;;49.73;;
15454;SDS011;21057;51.024;7.540;2024-03-06T06:04:16;66.07;;;46.60;;
15454;SDS011;21057;51.024;7.540;2024-03-06T06:06:44;66.67;;;47.17;;
15454;SDS011;21057;51.024;7.540;2024-03-06T06:09:11;70.90;;;43.67;;
15454;SDS011;21057;51.024;7.540;2024-03-06T06:11:41;48.83;;;44.93;;
15454;SDS011;21057;51.024;7.540;2024-03-06T06:14:10;48.30;;;44.37;;
15454;SDS011;21057;51.024;7.540;2024-03-06T06:16:37;51.93;;;47.27;;
15454;SDS011;21057;51.024;7.540;2024-03-06T06:19:06;48.70;;;45.03;;
15454;SDS011;21057;51.024;7.540;2024-03-06T06:21:33;51.23;;;45.83;;
15454;SDS011;21057;51.024;7.540;2024-03-06T06:24:02;63.93;;;43.40;;
15454;SDS011;21057;51.024;7.540;2024-03-06T06:26:31;50.20;;;45.07;;
15454;SDS011;21057;51.024;7.540;2024-03-06T06:28:58;48.27;;;41.57;;
15454;SDS011;21057;51.024;7.540;2024-03-06T06:31:25;46.17;;;42.20;;
15454;SDS011;21057;51.024;7.540;2024-03-06T06:33:52;48.00;;;43.83;;
15454;SDS011;21057;51.024;7.540;2024-03-06T06:36:19;56.90;;;43.53;;
15454;SDS011;21057;51.024;7.540;2024-03-06T06:38:46;51.27;;;46.23;;
15454;SDS011;21057;51.024;7.540;2024-03-06T06:41:15;51.47;;;46.37;;
15454;SDS011;21057;51.024;7.540;2024-03-06T06:43:44;47.17;;;43.53;;
15454;SDS011;21057;51.024;7.540;2024-03-06T06:46:11;49.70;;;46.07;;
15454;SDS011;21057;51.024;7.540;2024-03-06T06:48:38;49.90;;;45.40;;
15454;SDS011;21057;51.024;7.540;2024-03-06T06:51:05;61.83;;;45.27;;
15454;SDS011;21057;51.024;7.540;2024-03-06T06:53:38;50.97;;;44.00;;
15454;SDS011;21057;51.024;7.540;2024-03-06T06:56:07;62.47;;;46.70;;
15454;SDS011;21057;51.024;7.540;2024-03-06T06:58:35;49.40;;;45.03;;
15454;SDS011;21057;51.024;7.540;2024-03-06T07:01:02;48.20;;;44.40;;
15454;SDS011;21057;51.024;7.540;2024-03-06T07:03:29;89.20;;;47.50;;
15454;SDS011;21057;51.024;7.540;2024-03-06T07:05:56;63.70;;;47.80;;
15454;SDS011;21057;51.024;7.540;2024-03-06T07:08:23;65.50;;;48.57;;
15454;SDS011;21057;51.024;7.540;2024-03-06T07:10:49;69.70;;;44.07;;
15454;SDS011;21057;51.024;7.540;2024-03-06T07:13:18;53.13;;;47.50;;
15454;SDS011;21057;51.024;7.540;2024-03-06T07:15:46;95.10;;;47.37;;
15454;SDS011;21057;51.024;7.540;2024-03-06T07:18:13;74.83;;;45.33;;
15454;SDS011;21057;51.024;7.540;2024-03-06T07:20:40;52.33;;;45.73;;
15454;SDS011;21057;51.024;7.540;2024-03-06T07:23:07;48.50;;;43.53;;
15454;SDS011;21057;51.024;7.540;2024-03-06T07:25:34;49.77;;;45.17;;
15454;SDS011;21057;51.024;7.540;2024-03-06T07:28:01;50.63;;;46.90;;
15454;SDS011;21057;51.024;7.540;2024-03-06T07:30:29;48.83;;;45.33;;
15454;SDS011;21057;51.024;7.540;2024-03-06T07:32:57;52.73;;;48.30;;
15454;SDS011;21057;51.024;7.540;2024-03-06T07:35:24;49.63;;;44.90;;
15454;SDS011;21057;51.024;7.540;2024-03-06T07:37:51;53.13;;;47.70;;
15454;SDS011;21057;51.024;7.540;2024-03-06T07:40:17;50.10;;;45.17;;
15454;SDS011;21057;51.024;7.540;2024-03-06T07:42:44;52.87;;;47.90;;
15454;SDS011;21057;51.024;7.540;2024-03-06T07:45:11;53.97;;;48.00;;
15454;SDS011;21057;51.024;7.540;2024-03-06T07:47:38;52.33;;;47.87;;
15454;SDS011;21057;51.024;7.540;2024-03-06T07:50:08;51.87;;;47.77;;
15454;SDS011;21057;51.024;7.540;2024-03-06T07:52:36;51.37;;;47.60;;
15454;SDS011;21057;51.024;7.540;2024-03-06T07:55:03;49.80;;;46.20;;
15454;SDS011;21057;51.024;7.540;2024-03-06T07:57:30;48.40;;;44.23;;
15454;SDS011;21057;51.024;7.540;2024-03-06T07:59:57;47.57;;;43.87;;
15454;SDS011;21057;51.024;7.540;2024-03-06T08:02:24;48.90;;;44.07;;
15454;SDS011;21057;51.024;7.540;2024-03-06T08:04:51;48.23;;;43.57;;
15454;SDS011;21057;51.024;7.540;2024-03-06T08:07:19;48.80;;;44.20;;
15454;SDS011;21057;51.024;7.540;2024-03-06T08:09:46;62.03;;;47.43;;
15454;SDS011;21057;51.024;7.540;2024-03-06T08:12:13;59.77;;;45.47;;
15454;SDS011;21057;51.024;7.540;2024-03-06T08:14:40;51.47;;;46.03;;
15454;SDS011;21057;51.024;7.540;2024-03-06T08:17:09;52.27;;;47.20;;
15454;SDS011;21057;51.024;7.540;2024-03-06T08:19:36;52.63;;;46.20;;
15454;SDS011;21057;51.024;7.540;2024-03-06T08:22:03;50.57;;;46.77;;
15454;SDS011;21057;51.024;7.540;2024-03-06T08:24:32;49.43;;;44.77;;
15454;SDS011;21057;51.024;7.540;2024-03-06T08:26:59;49.33;;;45.03;;
15454;SDS011;21057;51.024;7.540;2024-03-06T08:29:26;54.83;;;46.13;;
15454;SDS011;21057;51.024;7.540;2024-03-06T08:31:54;52.17;;;47.77;;
15454;SDS011;21057;51.024;7.540;2024-03-06T08:34:24;54.80;;;43.23;;
15454;SDS011;21057;51.024;7.540;2024-03-06T08:36:51;47.87;;;43.43;;
15454;SDS011;21057;51.024;7.540;2024-03-06T08:39:18;48.70;;;43.90;;
15454;SDS011;21057;51.024;7.540;2024-03-06T08:41:49;48.50;;;44.13;;
15454;SDS011;21057;51.024;7.540;2024-03-06T08:44:16;50.43;;;45.03;;
15454;SDS011;21057;51.024;7.540;2024-03-06T08:46:43;50.23;;;45.27;;
15454;SDS011;21057;51.024;7.540;2024-03-06T08:49:09;46.00;;;42.03;;
15454;SDS011;21057;51.024;7.540;2024-03-06T08:51:38;49.17;;;44.80;;
15454;SDS011;21057;51.024;7.540;2024-03-06T08:54:05;46.93;;;42.30;;
15454;SDS011;21057;51.024;7.540;2024-03-06T08:56:32;48.17;;;43.30;;
15454;SDS011;21057;51.024;7.540;2024-03-06T08:59:00;48.23;;;43.60;;
15454;SDS011;21057;51.024;7.540;2024-03-06T09:01:28;49.63;;;42.87;;
15454;SDS011;21057;51.024;7.540;2024-03-06T09:03:55;49.60;;;43.90;;
15454;SDS011;21057;51.024;7.540;2024-03-06T09:06:22;56.87;;;42.07;;
15454;SDS011;21057;51.024;7.540;2024-03-06T09:08:50;45.03;;;41.10;;
15454;SDS011;21057;51.024;7.540;2024-03-06T09:11:17;43.57;;;39.03;;
15454;SDS011;21057;51.024;7.540;2024-03-06T09:13:43;48.10;;;41.10;;
15454;SDS011;21057;51.024;7.540;2024-03-06T09:16:12;44.93;;;40.67;;
15454;SDS011;21057;51.024;7.540;2024-03-06T09:18:38;42.47;;;38.97;;
15454;SDS011;21057;51.024;7.540;2024-03-06T09:21:05;43.93;;;39.93;;
15454;SDS011;21057;51.024;7.540;2024-03-06T09:23:32;40.60;;;36.23;;
15454;SDS011;21057;51.024;7.540;2024-03-06T09:25:59;42.90;;;38.33;;
15454;SDS011;21057;51.024;7.540;2024-03-06T09:28:26;41.27;;;36.87;;
15454;SDS011;21057;51.024;7.540;2024-03-06T09:30:53;42.77;;;38.33;;
15454;SDS011;21057;51.024;7.540;2024-03-06T09:33:21;42.67;;;37.17;;
15454;SDS011;21057;51.024;7.540;2024-03-06T09:35:48;43.37;;;38.73;;
15454;SDS011;21057;51.024;7.540;2024-03-06T09:38:15;40.03;;;36.53;;
15454;SDS011;21057;51.024;7.540;2024-03-06T09:40:42;40.40;;;36.60;;
15454;SDS011;21057;51.024;7.540;2024-03-06T09:43:09;38.50;;;35.10;;
15454;SDS011;21057;51.024;7.540;2024-03-06T09:45:36;39.17;;;35.30;;
15454;SDS011;21057;51.024;7.540;2024-03-06T09:48:03;39.47;;;35.23;;
15454;SDS011;21057;51.024;7.540;2024-03-06T09:50:33;39.57;;;35.60;;
15454;SDS011;21057;51.024;7.540;2024-03-06T09:53:06;41.07;;;35.33;;
15454;SDS011;21057;51.024;7.540;2024-03-06T09:55:36;40.00;;;33.13;;
15454;SDS011;21057;51.024;7.540;2024-03-06T09:58:03;38.07;;;33.40;;
15454;SDS011;21057;51.024;7.540;2024-03-06T10:00:30;34.97;;;30.03;;
15454;SDS011;21057;51.024;7.540;2024-03-06T10:02:59;32.60;;;28.33;;
15454;SDS011;21057;51.024;7.540;2024-03-06T10:05:26;33.00;;;28.20;;
15454;SDS011;21057;51.024;7.540;2024-03-06T10:07:54;40.23;;;28.67;;
15454;SDS011;21057;51.024;7.540;2024-03-06T10:10:21;37.57;;;29.47;;
15454;SDS011;21057;51.024;7.540;2024-03-06T10:12:48;33.97;;;28.50;;
15454;SDS011;21057;51.024;7.540;2024-03-06T10:15:15;33.50;;;27.67;;
15454;SDS011;21057;51.024;7.540;2024-03-06T10:17:43;32.20;;;26.53;;
15454;SDS011;21057;51.024;7.540;2024-03-06T10:20:20;30.50;;;27.27;;
15454;SDS011;21057;51.024;7.540;2024-03-06T10:22:51;30.33;;;27.33;;
15454;SDS011;21057;51.024;7.540;2024-03-06T10:25:21;28.87;;;25.93;;
15454;SDS011;21057;51.024;7.540;2024-03-06T10:28:02;27.73;;;24.83;;
15454;SDS011;21057;51.024;7.540;2024-03-06T10:30:30;27.42;;;24.70;;
15454;SDS011;21057;51.024;7.540;2024-03-06T10:32:58;27.50;;;24.95;;
15454;SDS011;21057;51.024;7.540;2024-03-06T10:35:25;27.35;;;24.85;;
15454;SDS011;21057;51.024;7.540;2024-03-06T10:37:52;28.17;;;25.27;;
15454;SDS011;21057;51.024;7.540;2024-03-06T10:40:22;27.08;;;24.35;;
15454;SDS011;21057;51.024;7.540;2024-03-06T10:42:49;26.80;;;24.02;;
15454;SDS011;21057;51.024;7.540;2024-03-06T10:45:18;27.42;;;24.75;;
15454;SDS011;21057;51.024;7.540;2024-03-06T10:47:47;27.88;;;25.10;;
15454;SDS011;21057;51.024;7.540;2024-03-06T10:50:15;28.10;;;25.45;;
15454;SDS011;21057;51.024;7.540;2024-03-06T10:52:44;26.98;;;24.48;;
15454;SDS011;21057;51.024;7.540;2024-03-06T10:55:13;26.65;;;24.00;;
15454;SDS011;21057;51.024;7.540;2024-03-06T10:57:43;24.92;;;22.77;;
15454;SDS011;21057;51.024;7.540;2024-03-06T11:00:12;25.92;;;23.48;;
15454;SDS011;21057;51.024;7.540;2024-03-06T11:02:45;26.27;;;23.80;;
15454;SDS011;21057;51.024;7.540;2024-03-06T11:05:14;26.58;;;23.73;;
15454;SDS011;21057;51.024;7.540;2024-03-06T11:07:41;25.25;;;22.92;;
15454;SDS011;21057;51.024;7.540;2024-03-06T11:10:09;25.90;;;23.80;;
15454;SDS011;21057;51.024;7.540;2024-03-06T11:12:42;28.52;;;25.83;;
15454;SDS011;21057;51.024;7.540;2024-03-06T11:15:13;27.30;;;25.00;;
15454;SDS011;21057;51.024;7.540;2024-03-06T11:17:41;29.40;;;26.50;;
15454;SDS011;21057;51.024;7.540;2024-03-06T11:20:12;29.23;;;26.50;;
15454;SDS011;21057;51.024;7.540;2024-03-06T11:28:29;25.50;;;23.23;;
15454;SDS011;21057;51.024;7.540;2024-03-06T11:30:56;25.02;;;23.10;;
15454;SDS011;21057;51.024;7.540;2024-03-06T11:33:28;24.95;;;22.77;;
15454;SDS011;21057;51.024;7.540;2024-03-06T11:36:14;24.10;;;21.80;;
15454;SDS011;21057;51.024;7.540;2024-03-06T11:38:46;23.00;;;21.27;;
15454;SDS011;21057;51.024;7.540;2024-03-06T11:41:13;22.70;;;20.90;;
15454;SDS011;21057;51.024;7.540;2024-03-06T11:43:44;24.58;;;22.45;;
15454;SDS011;21057;51.024;7.540;2024-03-06T11:46:11;23.45;;;21.60;;
15454;SDS011;21057;51.024;7.540;2024-03-06T11:48:38;22.65;;;20.85;;
15454;SDS011;21057;51.024;7.540;2024-03-06T11:51:05;23.65;;;21.60;;
15454;SDS011;21057;51.024;7.540;2024-03-06T11:53:33;26.08;;;24.17;;
15454;SDS011;21057;51.024;7.540;2024-03-06T11:56:00;28.40;;;26.15;;
15454;SDS011;21057;51.024;7.540;2024-03-06T11:58:27;26.90;;;24.70;;
15454;SDS011;21057;51.024;7.540;2024-03-06T12:00:55;27.40;;;25.05;;
15454;SDS011;21057;51.024;7.540;2024-03-06T12:03:22;28.30;;;25.67;;
15454;SDS011;21057;51.024;7.540;2024-03-06T12:05:50;27.45;;;24.92;;
15454;SDS011;21057;51.024;7.540;2024-03-06T12:08:17;26.30;;;23.90;;
15454;SDS011;21057;51.024;7.540;2024-03-06T12:10:45;27.67;;;25.25;;
15454;SDS011;21057;51.024;7.540;2024-03-06T12:13:13;26.87;;;24.37;;
15454;SDS011;21057;51.024;7.540;2024-03-06T12:15:42;24.40;;;22.50;;
15454;SDS011;21057;51.024;7.540;2024-03-06T12:18:10;23.90;;;21.90;;
15454;SDS011;21057;51.024;7.540;2024-03-06T12:20:40;24.20;;;22.10;;
15454;SDS011;21057;51.024;7.540;2024-03-06T12:23:10;23.57;;;21.77;;
15454;SDS011;21057;51.024;7.540;2024-03-06T12:25:46;25.03;;;22.93;;
15454;SDS011;21057;51.024;7.540;2024-03-06T12:28:13;25.67;;;23.47;;
15454;SDS011;21057;51.024;7.540;2024-03-06T12:30:41;26.27;;;23.70;;
15454;SDS011;21057;51.024;7.540;2024-03-06T12:33:11;23.73;;;21.63;;
15454;SDS011;21057;51.024;7.540;2024-03-06T12:35:43;24.00;;;21.97;;
15454;SDS011;21057;51.024;7.540;2024-03-06T12:38:12;26.13;;;23.83;;
15454;SDS011;21057;51.024;7.540;2024-03-06T12:40:40;23.37;;;21.50;;
15454;SDS011;21057;51.024;7.540;2024-03-06T12:43:07;24.03;;;21.83;;
15454;SDS011;21057;51.024;7.540;2024-03-06T12:45:34;23.53;;;21.53;;
15454;SDS011;21057;51.024;7.540;2024-03-06T12:48:02;23.53;;;21.43;;
15454;SDS011;21057;51.024;7.540;2024-03-06T12:50:32;24.00;;;22.00;;
15454;SDS011;21057;51.024;7.540;2024-03-06T12:52:59;23.87;;;21.70;;
15454;SDS011;21057;51.024;7.540;2024-03-06T12:55:26;25.10;;;23.13;;
15454;SDS011;21057;51.024;7.540;2024-03-06T12:57:53;23.90;;;22.10;;
15454;SDS011;21057;51.024;7.540;2024-03-06T13:00:19;24.47;;;22.50;;
15454;SDS011;21057;51.024;7.540;2024-03-06T13:02:47;24.07;;;22.27;;
15454;SDS011;21057;51.024;7.540;2024-03-06T13:05:15;24.00;;;22.20;;
15454;SDS011;21057;51.024;7.540;2024-03-06T13:07:43;24.23;;;22.37;;
15454;SDS011;21057;51.024;7.540;2024-03-06T13:10:10;24.17;;;22.37;;
15454;SDS011;21057;51.024;7.540;2024-03-06T13:12:38;22.87;;;21.27;;
15454;SDS011;21057;51.024;7.540;2024-03-06T13:15:05;24.37;;;22.60;;
15454;SDS011;21057;51.024;7.540;2024-03-06T13:17:33;25.00;;;23.03;;
15454;SDS011;21057;51.024;7.540;2024-03-06T13:20:00;23.87;;;22.10;;
15454;SDS011;21057;51.024;7.540;2024-03-06T13:22:27;23.60;;;21.87;;
15454;SDS011;21057;51.024;7.540;2024-03-06T13:24:55;22.80;;;21.10;;
15454;SDS011;21057;51.024;7.540;2024-03-06T13:27:22;23.17;;;21.40;;
15454;SDS011;21057;51.024;7.540;2024-03-06T13:29:49;23.90;;;21.90;;
15454;SDS011;21057;51.024;7.540;2024-03-06T13:32:16;24.20;;;22.47;;
15454;SDS011;21057;51.024;7.540;2024-03-06T13:34:43;23.93;;;21.93;;
15454;SDS011;21057;51.024;7.540;2024-03-06T13:37:10;24.83;;;22.77;;
15454;SDS011;21057;51.024;7.540;2024-03-06T13:39:36;24.00;;;22.10;;
15454;SDS011;21057;51.024;7.540;2024-03-06T13:42:05;26.07;;;23.77;;
15454;SDS011;21057;51.024;7.540;2024-03-06T13:44:33;26.97;;;24.33;;
15454;SDS011;21057;51.024;7.540;2024-03-06T13:47:01;26.00;;;23.57;;
15454;SDS011;21057;51.024;7.540;2024-03-06T13:49:34;26.10;;;23.73;;
15454;SDS011;21057;51.024;7.540;2024-03-06T13:52:05;26.73;;;24.20;;
15454;SDS011;21057;51.024;7.540;2024-03-06T13:54:35;25.57;;;23.53;;
15454;SDS011;21057;51.024;7.540;2024-03-06T13:57:03;25.13;;;23.03;;
15454;SDS011;21057;51.024;7.540;2024-03-06T13:59:32;24.23;;;22.17;;
15454;SDS011;21057;51.024;7.540;2024-03-06T14:01:59;24.37;;;22.20;;
15454;SDS011;21057;51.024;7.540;2024-03-06T14:04:26;25.80;;;23.53;;
15454;SDS011;21057;51.024;7.540;2024-03-06T14:06:53;24.57;;;22.67;;
15454;SDS011;21057;51.024;7.540;2024-03-06T14:09:21;24.43;;;22.43;;
15454;SDS011;21057;51.024;7.540;2024-03-06T14:11:48;24.97;;;22.87;;
15454;SDS011;21057;51.024;7.540;2024-03-06T14:14:15;24.37;;;22.47;;
15454;SDS011;21057;51.024;7.540;2024-03-06T14:16:44;24.47;;;22.47;;
15454;SDS011;21057;51.024;7.540;2024-03-06T14:19:11;23.00;;;21.23;;
15454;SDS011;21057;51.024;7.540;2024-03-06T14:21:38;23.63;;;21.77;;
15454;SDS011;21057;51.024;7.540;2024-03-06T14:24:06;24.40;;;22.33;;
15454;SDS011;21057;51.024;7.540;2024-03-06T14:26:33;24.63;;;22.73;;
15454;SDS011;21057;51.024;7.540;2024-03-06T14:29:00;24.30;;;22.13;;
15454;SDS011;21057;51.024;7.540;2024-03-06T14:31:28;23.33;;;21.43;;